createdAt,value
2017-08-03T00:00:47.856Z,22.30
2017-08-03T00:03:22.767Z,22.20
2017-08-03T00:05:57.711Z,22.10
2017-08-03T00:08:32.484Z,22.20
2017-08-03T00:11:08.350Z,22.20
2017-08-03T00:13:43.216Z,22.20
2017-08-03T00:16:18.100Z,22.20
2017-08-03T00:18:53.162Z,22.20
2017-08-03T00:21:27.955Z,22.20
2017-08-03T00:24:02.736Z,22.20
2017-08-03T00:26:37.655Z,22.20
2017-08-03T00:29:13.552Z,22.20
2017-08-03T00:31:48.414Z,22.20
2017-08-03T00:34:23.238Z,22.20
2017-08-03T00:36:58.324Z,22.20
2017-08-03T00:39:33.204Z,22.10
2017-08-03T00:42:08.019Z,22.10
2017-08-03T00:44:42.783Z,22.10
2017-08-03T00:47:19.020Z,22.10
2017-08-03T00:49:53.924Z,22.10
2017-08-03T00:52:28.821Z,22.00
2017-08-03T00:55:03.788Z,22.10
2017-08-03T00:57:38.564Z,22.00
2017-08-03T01:00:13.328Z,22.00
2017-08-03T01:02:48.140Z,21.90
2017-08-03T01:05:23.828Z,22.00
2017-08-03T01:07:58.733Z,22.00
2017-08-03T01:10:33.540Z,22.00
2017-08-03T01:13:08.332Z,21.90
2017-08-03T01:15:43.231Z,21.90
2017-08-03T01:18:21.788Z,21.90
2017-08-03T01:20:56.567Z,21.90
2017-08-03T01:23:31.460Z,21.90
2017-08-03T01:26:06.228Z,21.90
2017-08-03T01:28:41.018Z,21.90
2017-08-03T01:31:15.915Z,21.90
2017-08-03T01:33:50.683Z,21.80
2017-08-03T01:36:25.688Z,21.90
2017-08-03T01:39:00.611Z,21.90
2017-08-03T01:41:35.413Z,21.90
2017-08-03T01:44:10.228Z,21.90
2017-08-03T01:46:47.900Z,22.00
2017-08-03T01:49:22.868Z,22.00
2017-08-03T01:51:57.637Z,22.00
2017-08-03T01:54:32.420Z,22.00
2017-08-03T01:57:07.199Z,22.10
2017-08-03T01:59:41.995Z,22.00
2017-08-03T02:02:16.784Z,22.10
2017-08-03T02:04:51.583Z,22.10
2017-08-03T02:07:26.376Z,22.00
2017-08-03T02:10:01.192Z,22.00
2017-08-03T02:12:36.131Z,21.70
2017-08-03T02:15:11.823Z,21.70
2017-08-03T02:17:46.712Z,21.70
2017-08-03T02:20:21.620Z,21.70
2017-08-03T02:22:56.540Z,21.70
2017-08-03T02:25:31.505Z,21.80
2017-08-03T02:28:06.280Z,21.80
2017-08-03T02:30:41.184Z,21.90
2017-08-03T02:33:15.962Z,21.90
2017-08-03T02:35:50.876Z,21.80
2017-08-03T02:38:25.787Z,21.90
2017-08-03T02:41:00.564Z,21.90
2017-08-03T02:43:35.507Z,21.90
2017-08-03T02:46:10.277Z,21.90
2017-08-03T02:48:45.196Z,21.80
2017-08-03T02:51:20.120Z,21.70
2017-08-03T02:53:55.880Z,21.70
2017-08-03T02:56:30.784Z,21.70
2017-08-03T02:59:05.551Z,21.80
2017-08-03T03:01:40.487Z,21.80
2017-08-03T03:04:15.285Z,21.70
2017-08-03T03:06:50.075Z,21.70
2017-08-03T03:09:24.989Z,21.70
2017-08-03T03:11:59.887Z,21.80
2017-08-03T03:14:34.770Z,21.80
2017-08-03T03:17:09.620Z,21.80
2017-08-03T03:19:44.408Z,21.90
2017-08-03T03:22:19.324Z,21.90
2017-08-03T03:24:54.244Z,21.80
2017-08-03T03:27:29.028Z,21.90
2017-08-03T03:30:04.740Z,21.90
2017-08-03T03:32:39.672Z,21.90
2017-08-03T03:35:14.444Z,21.90
2017-08-03T03:37:49.363Z,21.90
2017-08-03T03:40:24.312Z,21.90
2017-08-03T03:42:59.095Z,22.00
2017-08-03T03:45:33.876Z,22.00
2017-08-03T03:48:08.671Z,22.00
2017-08-03T03:50:43.468Z,21.90
2017-08-03T03:53:18.291Z,21.90
2017-08-03T03:55:53.095Z,21.90
2017-08-03T03:58:27.900Z,21.90
2017-08-03T04:01:02.673Z,21.90
2017-08-03T04:03:39.560Z,21.90
2017-08-03T04:06:14.469Z,22.00
2017-08-03T04:08:49.368Z,22.10
2017-08-03T04:11:24.272Z,21.90
2017-08-03T04:13:59.185Z,21.80
2017-08-03T04:16:34.527Z,21.80
2017-08-03T04:19:09.436Z,21.80
2017-08-03T04:21:44.216Z,21.70
2017-08-03T04:24:19.003Z,21.50
2017-08-03T04:26:53.920Z,21.70
2017-08-03T04:29:28.719Z,21.70
2017-08-03T04:32:03.519Z,21.70
2017-08-03T04:34:38.459Z,21.90
2017-08-03T04:37:13.236Z,21.90
2017-08-03T04:39:48.016Z,22.00
2017-08-03T04:42:22.800Z,21.90
2017-08-03T04:44:57.660Z,21.90
2017-08-03T04:47:32.441Z,21.90
2017-08-03T04:50:07.232Z,21.90
2017-08-03T04:52:42.116Z,21.70
2017-08-03T04:55:17.955Z,21.60
2017-08-03T04:57:52.887Z,21.60
2017-08-03T05:00:27.720Z,21.70
2017-08-03T05:03:02.663Z,21.70
2017-08-03T05:05:37.736Z,21.90
2017-08-03T05:08:12.476Z,22.10
2017-08-03T05:10:47.275Z,22.10
2017-08-03T05:13:22.052Z,22.30
2017-08-03T05:15:56.852Z,22.40
2017-08-03T05:18:31.748Z,22.60
2017-08-03T05:21:06.528Z,22.60
2017-08-03T05:23:41.321Z,22.70
2017-08-03T05:26:16.120Z,22.90
2017-08-03T05:28:51.046Z,23.00
2017-08-03T05:31:25.844Z,23.00
2017-08-03T05:34:00.615Z,23.10
2017-08-03T05:36:36.093Z,23.20
2017-08-03T05:39:10.971Z,23.30
2017-08-03T05:41:45.794Z,23.40
2017-08-03T05:44:20.701Z,23.50
2017-08-03T05:46:55.641Z,23.60
2017-08-03T05:49:30.416Z,23.70
2017-08-03T05:52:05.229Z,23.80
2017-08-03T05:54:40.160Z,23.80
2017-08-03T05:57:14.980Z,23.90
2017-08-03T05:59:49.919Z,24.00
2017-08-03T06:02:24.895Z,24.10
2017-08-03T06:05:02.006Z,24.20
2017-08-03T06:07:36.929Z,24.30
2017-08-03T06:10:11.696Z,24.30
2017-08-03T06:12:46.648Z,24.20
2017-08-03T06:15:21.558Z,24.10
2017-08-03T06:17:56.480Z,24.10
2017-08-03T06:20:31.420Z,24.10
2017-08-03T06:23:07.219Z,24.00
2017-08-03T06:25:42.108Z,24.10
2017-08-03T06:28:17.099Z,24.10
2017-08-03T06:30:51.912Z,24.10
2017-08-03T06:33:26.688Z,24.30
2017-08-03T06:36:01.608Z,24.50
2017-08-03T06:38:36.392Z,24.60
2017-08-03T06:41:11.171Z,24.70
2017-08-03T06:43:46.096Z,25.00
2017-08-03T06:46:21.014Z,24.90
2017-08-03T06:48:55.932Z,25.00
2017-08-03T06:51:32.695Z,25.00
2017-08-03T06:54:07.636Z,25.20
2017-08-03T06:56:42.544Z,25.30
2017-08-03T06:59:17.427Z,25.40
2017-08-03T07:01:52.351Z,25.50
2017-08-03T07:04:27.274Z,25.50
2017-08-03T07:07:02.177Z,25.80
2017-08-03T07:09:36.971Z,26.00
2017-08-03T07:12:11.899Z,26.00
2017-08-03T07:14:46.853Z,26.00
2017-08-03T07:17:21.630Z,26.20
2017-08-03T07:19:56.417Z,26.40
2017-08-03T07:22:34.018Z,26.60
2017-08-03T07:25:09.170Z,26.90
2017-08-03T07:27:44.096Z,27.00
2017-08-03T07:30:18.887Z,27.10
2017-08-03T07:32:53.660Z,27.10
2017-08-03T07:35:28.576Z,27.10
2017-08-03T07:38:03.500Z,27.10
2017-08-03T07:40:38.391Z,27.40
2017-08-03T07:43:13.184Z,27.70
2017-08-03T07:45:47.987Z,28.10
2017-08-03T07:48:22.793Z,28.30
2017-08-03T07:50:57.709Z,28.50
2017-08-03T07:53:32.480Z,28.60
2017-08-03T07:56:07.304Z,29.00
2017-08-03T07:58:42.452Z,29.10
2017-08-03T08:01:17.415Z,29.20
2017-08-03T08:03:52.213Z,29.30
2017-08-03T08:06:27.012Z,29.30
2017-08-03T08:09:01.922Z,29.10
2017-08-03T08:11:36.759Z,29.10
2017-08-03T08:14:11.686Z,29.10
2017-08-03T08:16:46.852Z,29.00
2017-08-03T08:19:21.693Z,28.80
2017-08-03T08:21:56.697Z,28.60
2017-08-03T08:24:31.629Z,28.50
2017-08-03T08:27:06.452Z,28.40
2017-08-03T08:29:41.264Z,28.30
2017-08-03T08:32:16.171Z,28.00
2017-08-03T08:34:51.361Z,27.70
2017-08-03T08:37:27.797Z,27.70
2017-08-03T08:40:02.619Z,27.70
2017-08-03T08:42:37.416Z,27.80
2017-08-03T08:45:13.412Z,27.80
2017-08-03T08:47:48.339Z,27.80
2017-08-03T08:50:23.116Z,27.80
2017-08-03T08:52:57.972Z,27.80
2017-08-03T08:55:32.765Z,27.80
2017-08-03T08:58:07.705Z,27.70
2017-08-03T09:00:42.469Z,27.80
2017-08-03T09:03:17.399Z,27.80
2017-08-03T09:05:52.187Z,27.90
2017-08-03T09:08:27.140Z,27.90
2017-08-03T09:11:01.920Z,28.00
2017-08-03T09:13:36.727Z,28.10
2017-08-03T09:16:11.627Z,28.20
2017-08-03T09:18:46.409Z,28.40
2017-08-03T09:21:21.193Z,28.60
2017-08-03T09:23:56.008Z,28.80
2017-08-03T09:26:30.921Z,29.10
2017-08-03T09:29:05.827Z,29.30
2017-08-03T09:31:40.620Z,29.50
2017-08-03T09:34:15.401Z,29.80
2017-08-03T09:36:50.208Z,29.90
2017-08-03T09:39:25.141Z,30.00
2017-08-03T09:41:59.916Z,29.90
2017-08-03T09:44:34.740Z,29.90
2017-08-03T09:47:09.552Z,29.90
2017-08-03T09:49:44.506Z,29.70
2017-08-03T09:52:19.299Z,29.70
2017-08-03T09:54:54.097Z,29.80
2017-08-03T09:57:28.906Z,29.90
2017-08-03T10:00:03.692Z,30.10
2017-08-03T10:02:44.301Z,30.20
2017-08-03T10:05:20.062Z,30.40
2017-08-03T10:07:56.045Z,30.70
2017-08-03T10:10:40.573Z,30.90
2017-08-03T10:13:18.049Z,31.30
2017-08-03T10:15:52.863Z,31.70
2017-08-03T10:18:27.767Z,32.10
2017-08-03T10:21:02.563Z,32.80
2017-08-03T10:23:37.344Z,33.40
2017-08-03T10:26:12.241Z,34.10
2017-08-03T10:28:47.160Z,34.50
2017-08-03T10:31:21.955Z,35.00
2017-08-03T10:33:56.745Z,35.50
2017-08-03T10:36:32.440Z,35.90
2017-08-03T10:39:11.170Z,35.90
2017-08-03T10:41:46.087Z,35.80
2017-08-03T10:44:20.984Z,35.40
2017-08-03T10:46:56.309Z,35.00
2017-08-03T10:49:31.464Z,34.80
2017-08-03T10:52:06.789Z,34.90
2017-08-03T10:54:43.396Z,35.00
2017-08-03T10:57:18.967Z,35.50
2017-08-03T10:59:54.199Z,35.80
2017-08-03T11:02:29.502Z,35.90
2017-08-03T11:05:04.364Z,35.80
2017-08-03T11:07:39.575Z,35.70
2017-08-03T11:10:15.112Z,35.50
2017-08-03T11:12:50.255Z,35.40
2017-08-03T11:15:25.028Z,35.30
2017-08-03T11:17:59.806Z,35.10
2017-08-03T11:20:35.141Z,34.90
2017-08-03T11:23:10.326Z,34.80
2017-08-03T11:25:45.420Z,34.60
2017-08-03T11:28:20.783Z,34.70
2017-08-03T11:30:55.946Z,34.60
2017-08-03T11:33:31.251Z,34.60
2017-08-03T11:36:06.268Z,34.50
2017-08-03T11:38:41.080Z,34.40
2017-08-03T11:41:16.194Z,34.30
2017-08-03T11:47:02.628Z,34.30
2017-08-03T11:49:53.652Z,34.30
2017-08-03T11:52:29.784Z,34.40
2017-08-03T11:55:04.943Z,34.50
2017-08-03T11:57:39.895Z,34.50
2017-08-03T12:00:16.405Z,34.50
2017-08-03T12:02:56.689Z,34.40
2017-08-03T12:05:31.658Z,34.20
2017-08-03T12:08:08.387Z,34.20
2017-08-03T12:10:53.132Z,33.90
2017-08-03T12:13:28.048Z,34.10
2017-08-03T12:16:02.871Z,34.00
2017-08-03T12:18:37.802Z,34.10
2017-08-03T12:21:12.765Z,34.10
2017-08-03T12:23:47.609Z,34.10
2017-08-03T12:26:22.900Z,34.10
2017-08-03T12:29:11.824Z,34.20
2017-08-03T12:31:46.796Z,34.30
2017-08-03T12:34:21.711Z,34.30
2017-08-03T12:36:56.711Z,34.30
2017-08-03T12:39:31.498Z,34.20
2017-08-03T12:42:06.271Z,34.20
2017-08-03T12:44:41.228Z,34.10
2017-08-03T12:47:18.344Z,33.70
2017-08-03T12:49:53.581Z,33.60
2017-08-03T12:52:28.610Z,33.70
2017-08-03T12:55:03.921Z,33.70
2017-08-03T12:57:42.156Z,33.70
2017-08-03T13:00:16.953Z,33.80
2017-08-03T13:03:04.223Z,33.80
2017-08-03T13:05:40.800Z,33.70
2017-08-03T13:08:15.798Z,33.40
2017-08-03T13:10:52.006Z,33.10
2017-08-03T13:13:27.259Z,32.90
2017-08-03T13:16:02.324Z,32.50
2017-08-03T13:18:37.354Z,31.80
2017-08-03T13:21:12.260Z,30.60
2017-08-03T13:23:47.108Z,29.60
2017-08-03T13:26:22.253Z,28.90
2017-08-03T13:28:57.802Z,28.30
2017-08-03T13:31:32.875Z,27.80
2017-08-03T13:34:07.722Z,27.40
2017-08-03T13:36:42.519Z,27.20
2017-08-03T13:39:17.462Z,27.00
2017-08-03T13:41:52.276Z,26.80
2017-08-03T13:44:27.205Z,26.60
2017-08-03T13:47:04.143Z,26.60
2017-08-03T13:49:39.050Z,26.50
2017-08-03T13:52:13.983Z,26.60
2017-08-03T13:54:49.669Z,26.80
2017-08-03T13:57:33.446Z,27.00
2017-08-03T14:00:08.877Z,27.20
2017-08-03T14:02:50.250Z,27.50
2017-08-03T14:05:25.084Z,27.80
2017-08-03T14:07:59.864Z,28.10
2017-08-03T14:10:41.057Z,28.40
2017-08-03T14:13:21.057Z,28.50
2017-08-03T14:16:10.102Z,28.70
2017-08-03T14:18:48.585Z,29.20
2017-08-03T14:21:26.028Z,29.60
2017-08-03T14:24:03.956Z,30.00
2017-08-03T14:26:42.239Z,30.30
2017-08-03T14:29:17.406Z,31.20
2017-08-03T14:31:52.393Z,32.60
2017-08-03T14:34:28.897Z,33.90
2017-08-03T14:37:04.103Z,34.80
2017-08-03T14:39:40.156Z,35.00
2017-08-03T14:42:22.456Z,34.90
2017-08-03T14:45:45.757Z,34.80
2017-08-03T14:51:55.878Z,34.00
2017-08-03T14:54:38.742Z,33.40
2017-08-03T14:57:19.454Z,32.90
2017-08-03T15:00:00.574Z,32.50
2017-08-03T15:02:39.596Z,32.10
2017-08-03T15:05:15.483Z,31.80
2017-08-03T15:07:57.517Z,31.60
2017-08-03T15:10:38.476Z,31.30
2017-08-03T15:13:13.486Z,31.30
2017-08-03T15:16:03.234Z,31.30
2017-08-03T15:21:25.008Z,31.60
2017-08-03T15:24:30.504Z,32.10
2017-08-03T16:26:23.730Z,37.20
2017-08-03T16:28:58.544Z,37.70
2017-08-03T16:31:39.984Z,38.00
2017-08-03T16:34:38.086Z,37.50
2017-08-03T17:11:33.252Z,36.50
2017-08-03T17:14:09.519Z,36.30
2017-08-03T17:17:00.994Z,35.90
2017-08-03T17:22:24.848Z,34.80
2017-08-03T17:24:59.764Z,34.00
2017-08-03T17:27:35.641Z,33.10
2017-08-03T17:30:10.513Z,32.80
2017-08-03T17:32:45.435Z,32.60
2017-08-03T17:35:20.488Z,32.40
2017-08-03T17:37:55.459Z,32.30
2017-08-03T17:40:31.273Z,32.10
2017-08-03T17:43:06.103Z,32.00
2017-08-03T17:45:40.988Z,31.90
2017-08-03T17:48:33.008Z,31.70
2017-08-03T17:54:17.284Z,31.30
2017-08-03T17:56:57.163Z,31.00
2017-08-03T17:59:32.094Z,30.60
2017-08-03T18:02:07.003Z,30.20
2017-08-03T18:04:41.967Z,29.90
2017-08-03T18:07:16.731Z,29.60
2017-08-03T18:09:53.586Z,29.40
2017-08-03T18:12:29.415Z,29.30
2017-08-03T18:15:08.249Z,29.00
2017-08-03T18:17:43.665Z,28.70
2017-08-03T18:20:18.849Z,28.50
2017-08-03T18:22:54.006Z,28.40
2017-08-03T18:25:31.475Z,28.30
2017-08-03T18:28:08.639Z,28.20
2017-08-03T18:30:46.042Z,28.10
2017-08-03T18:33:20.871Z,28.10
2017-08-03T18:35:56.014Z,28.00
2017-08-03T18:38:30.944Z,27.80
2017-08-03T18:41:05.767Z,27.70
2017-08-03T18:43:41.181Z,27.40
2017-08-03T18:46:17.488Z,27.20
2017-08-03T18:48:52.323Z,27.00
2017-08-03T18:51:27.880Z,26.90
2017-08-03T18:54:29.741Z,26.90
2017-08-03T18:57:16.101Z,26.70
2017-08-03T19:00:09.897Z,26.50
2017-08-03T19:03:13.346Z,26.50
2017-08-03T19:05:50.130Z,26.50
2017-08-03T19:08:33.367Z,26.50
2017-08-03T19:11:09.143Z,26.50
2017-08-03T19:13:44.008Z,26.40
2017-08-03T19:16:19.260Z,26.30
2017-08-03T19:18:54.239Z,26.30
2017-08-03T19:21:30.248Z,26.20
2017-08-03T19:24:05.162Z,26.20
2017-08-03T19:26:44.007Z,26.20
2017-08-03T19:29:22.723Z,26.10
2017-08-03T19:31:57.577Z,26.10
2017-08-03T19:34:32.500Z,26.20
2017-08-03T19:37:09.770Z,26.20
2017-08-03T19:39:44.946Z,26.10
2017-08-03T19:42:20.221Z,26.10
2017-08-03T19:44:55.157Z,26.00
2017-08-03T19:47:35.783Z,25.90
2017-08-03T19:50:11.202Z,25.90
2017-08-03T19:52:52.265Z,25.80
2017-08-03T19:55:27.591Z,25.70
2017-08-03T19:58:02.468Z,25.60
2017-08-03T20:00:43.360Z,25.50
2017-08-03T20:03:18.359Z,25.40
2017-08-03T20:05:57.321Z,25.30
2017-08-03T20:08:39.104Z,25.20
2017-08-03T20:11:16.360Z,25.10
2017-08-03T20:13:51.756Z,25.00
2017-08-03T20:16:26.687Z,25.10
2017-08-03T20:19:02.001Z,25.10
2017-08-03T20:21:37.036Z,25.00
2017-08-03T20:24:12.128Z,25.00
2017-08-03T20:26:47.223Z,25.00
2017-08-03T20:29:22.290Z,24.90
2017-08-03T20:31:57.666Z,24.90
2017-08-03T20:34:32.792Z,24.70
2017-08-03T20:37:08.916Z,24.70
2017-08-03T20:39:43.984Z,24.70
2017-08-03T20:42:19.025Z,24.50
2017-08-03T20:44:53.800Z,24.50
2017-08-03T20:47:29.725Z,24.50
2017-08-03T20:50:04.620Z,24.40
2017-08-03T20:52:45.560Z,24.30
2017-08-03T20:55:20.457Z,24.30
2017-08-03T20:57:55.280Z,24.30
2017-08-03T21:00:30.147Z,24.20
2017-08-03T21:03:05.965Z,24.30
2017-08-03T21:05:40.864Z,24.20
2017-08-03T21:08:16.284Z,24.20
2017-08-03T21:10:51.444Z,24.20
2017-08-03T21:13:26.388Z,24.00
2017-08-03T21:16:01.432Z,23.90
2017-08-03T21:18:38.708Z,23.70
2017-08-03T21:21:14.042Z,23.80
2017-08-03T21:23:49.454Z,23.80
2017-08-03T21:26:24.896Z,23.80
2017-08-03T21:29:00.325Z,23.80
2017-08-03T21:31:36.123Z,23.70
2017-08-03T21:34:11.349Z,23.80
2017-08-03T21:36:46.723Z,23.80
2017-08-03T21:39:21.863Z,23.80
2017-08-03T21:41:56.967Z,23.90
2017-08-03T21:44:32.360Z,23.80
2017-08-03T21:47:07.681Z,23.80
2017-08-03T21:49:42.635Z,23.80
2017-08-03T21:52:17.541Z,23.90
2017-08-03T21:54:53.043Z,23.70
2017-08-03T21:57:28.170Z,23.70
2017-08-03T22:00:03.072Z,23.60
2017-08-03T22:02:38.045Z,23.50
2017-08-03T22:05:13.424Z,23.50
2017-08-03T22:07:48.279Z,23.40
2017-08-03T22:10:23.890Z,23.30
2017-08-03T22:12:59.157Z,23.30
2017-08-03T22:15:34.228Z,23.30
2017-08-03T22:18:09.530Z,23.30
2017-08-03T22:20:44.727Z,23.40
2017-08-03T22:23:19.897Z,23.50
2017-08-03T22:25:58.987Z,23.60
2017-08-03T22:28:34.248Z,23.60
2017-08-03T22:31:09.178Z,23.60
2017-08-03T22:33:44.600Z,23.50
2017-08-03T22:36:19.839Z,23.40
2017-08-03T22:38:55.299Z,23.40
2017-08-03T22:41:34.677Z,23.40
2017-08-03T22:44:09.457Z,23.30
2017-08-03T22:46:44.432Z,23.10
2017-08-03T22:49:19.464Z,23.00
2017-08-03T22:51:54.872Z,23.10
2017-08-03T22:54:30.088Z,23.10
2017-08-03T22:57:05.258Z,23.10
2017-08-03T22:59:40.295Z,23.10
2017-08-03T23:02:15.490Z,23.00
2017-08-03T23:04:50.451Z,23.00
2017-08-03T23:07:25.812Z,23.00
2017-08-03T23:10:00.732Z,22.90
2017-08-03T23:12:35.551Z,22.90
2017-08-03T23:15:11.129Z,23.00
2017-08-03T23:17:47.016Z,23.00
2017-08-03T23:20:22.037Z,23.00
2017-08-03T23:22:57.444Z,23.00
2017-08-03T23:25:32.212Z,23.00
2017-08-03T23:28:07.031Z,23.00
2017-08-03T23:30:41.791Z,22.80
2017-08-03T23:33:16.743Z,22.70
2017-08-03T23:35:51.744Z,22.50
2017-08-03T23:38:26.716Z,22.40
2017-08-03T23:41:01.485Z,22.30
2017-08-03T23:43:36.280Z,22.30
2017-08-03T23:46:11.547Z,22.50
2017-08-03T23:48:46.601Z,22.40
2017-08-03T23:51:21.626Z,22.50
2017-08-03T23:54:00.496Z,22.50
2017-08-03T23:56:35.427Z,22.40
2017-08-03T23:59:10.323Z,22.50
